Time;durP1;ratioP1;P1;durP2;ratioP2;P2;SDS_P1;SDS_P2;PMS_P1;PMS_P2;Temp;Humidity;BMP_temperature;BMP_pressure;BME280_temperature;BME280_humidity;BME280_pressure;Samples;Min_cycle;Max_cycle;Signal;HPM_P1;HPM_P2
2023/04/17 00:00:00;;;;;;;21.17;10.75;;;;;;;15.42;100.00;100601.53;2079874;28;20118;-75
2023/04/17 00:01:22;;;;;;;22.58;10.68;;;;;;;15.50;100.00;100605.00;2077370;28;20041;-75
2023/04/17 00:02:45;;;;;;;19.05;9.82;;;;;;;15.57;100.00;100605.88;2068800;28;20080;-75
2023/04/17 00:04:09;;;;;;;22.40;10.57;;;;;;;15.63;100.00;100601.41;2070248;28;20454;-75
2023/04/17 00:05:32;;;;;;;22.95;10.10;;;;;;;15.71;100.00;100596.91;2077739;28;20494;-75
2023/04/17 00:06:53;;;;;;;32.50;10.55;;;;;;;15.78;100.00;100606.59;2069072;28;20042;-76
2023/04/17 00:08:16;;;;;;;26.73;10.65;;;;;;;15.82;100.00;100608.34;2075152;28;20093;-76
2023/04/17 00:09:37;;;;;;;21.23;9.95;;;;;;;15.84;100.00;100598.56;2085358;28;20465;-76
2023/04/17 00:10:59;;;;;;;18.65;8.80;;;;;;;15.85;100.00;100596.78;2077360;28;20095;-76
2023/04/17 00:12:22;;;;;;;21.95;9.82;;;;;;;15.85;100.00;100607.44;2085467;28;20053;-75
2023/04/17 00:13:44;;;;;;;21.30;10.48;;;;;;;15.84;100.00;100603.00;2080177;28;20081;-76
2023/04/17 00:15:08;;;;;;;24.63;9.77;;;;;;;15.83;100.00;100601.22;2074973;28;20116;-76
2023/04/17 00:16:29;;;;;;;22.65;10.07;;;;;;;15.83;100.00;100593.25;2068918;28;20418;-76
2023/04/17 00:17:51;;;;;;;18.65;9.95;;;;;;;15.80;100.00;100594.19;2069156;28;20057;-74
2023/04/17 00:19:13;;;;;;;24.95;10.13;;;;;;;15.83;100.00;100598.56;2066427;28;20060;-75
2023/04/17 00:20:35;;;;;;;21.00;10.30;;;;;;;15.84;100.00;100592.34;2062756;28;20538;-76
2023/04/17 00:21:56;;;;;;;24.50;11.23;;;;;;;15.85;100.00;100591.47;2070301;28;20112;-74
2023/04/17 00:23:18;;;;;;;18.50;9.55;;;;;;;15.86;100.00;100593.25;2070335;28;20029;-75
2023/04/17 00:24:40;;;;;;;21.67;10.63;;;;;;;15.88;100.00;100586.13;2078873;28;20056;-75
2023/04/17 00:26:02;;;;;;;18.00;10.18;;;;;;;15.88;100.00;100579.00;2078718;28;20045;-75
2023/04/17 00:27:25;;;;;;;24.92;11.43;;;;;;;15.89;100.00;100575.44;2081446;28;20456;-75
2023/04/17 00:28:49;;;;;;;20.42;10.88;;;;;;;15.89;100.00;100585.22;2071273;28;20054;-75
2023/04/17 00:30:11;;;;;;;22.85;10.57;;;;;;;15.89;100.00;100578.09;2070824;28;20670;-75
2023/04/17 00:31:34;;;;;;;22.70;10.70;;;;;;;15.88;100.00;100575.47;2076548;28;20050;-75
2023/04/17 00:32:55;;;;;;;20.30;9.88;;;;;;;15.87;100.00;100574.59;2078876;28;20049;-75
2023/04/17 00:34:17;;;;;;;19.45;9.63;;;;;;;15.81;100.00;100581.75;2069524;28;20042;-74
2023/04/17 00:35:39;;;;;;;18.08;9.82;;;;;;;15.66;100.00;100576.56;2074211;28;20053;-74
2023/04/17 00:37:01;;;;;;;18.48;10.10;;;;;;;15.44;100.00;100579.34;2069524;28;20045;-75
2023/04/17 00:38:23;;;;;;;23.85;9.60;;;;;;;15.28;100.00;100576.81;2070186;28;20108;-75
2023/04/17 00:39:46;;;;;;;21.77;10.25;;;;;;;15.18;100.00;100577.75;2074557;28;20425;-74
2023/04/17 00:41:08;;;;;;;26.42;10.93;;;;;;;15.12;100.00;100586.63;2064358;28;20057;-75
2023/04/17 00:42:31;;;;;;;18.73;11.00;;;;;;;15.10;100.00;100578.66;2075958;28;20412;-75
2023/04/17 00:43:54;;;;;;;19.80;11.80;;;;;;;15.11;100.00;100583.09;2077518;28;20061;-75
2023/04/17 00:45:15;;;;;;;23.40;12.00;;;;;;;15.15;100.00;100581.31;2077365;28;20544;-75
2023/04/17 00:46:38;;;;;;;24.42;11.65;;;;;;;15.20;100.00;100591.91;2078392;28;20520;-75
2023/04/17 00:48:00;;;;;;;21.42;11.70;;;;;;;15.21;100.00;100586.59;2078914;28;20410;-75
2023/04/17 00:49:23;;;;;;;26.80;12.30;;;;;;;15.23;100.00;100587.44;2069786;28;20050;-74
2023/04/17 00:50:45;;;;;;;24.08;12.75;;;;;;;15.24;100.00;100586.56;2064845;28;20046;-75
2023/04/17 00:52:08;;;;;;;25.30;12.32;;;;;;;15.26;100.00;100587.44;2075597;28;20061;-75
2023/04/17 00:53:30;;;;;;;22.38;11.38;;;;;;;15.27;100.00;100586.56;2069605;28;20046;-75
2023/04/17 00:54:54;;;;;;;25.02;11.73;;;;;;;15.27;100.00;100588.34;2075789;28;20444;-74
2023/04/17 00:56:16;;;;;;;22.48;11.63;;;;;;;15.21;100.00;100583.06;2070063;28;20045;-75
2023/04/17 00:57:42;;;;;;;24.80;11.13;;;;;;;15.10;100.00;100583.09;2073668;28;20062;-75
2023/04/17 00:59:06;;;;;;;20.27;10.13;;;;;;;15.00;100.00;100573.41;2078874;28;20045;-75
2023/04/17 01:00:28;;;;;;;21.40;10.45;;;;;;;14.90;100.00;100585.00;2078944;28;20719;-75
2023/04/17 01:01:51;;;;;;;20.83;10.23;;;;;;;14.83;100.00;100577.94;2069248;28;20050;-75
2023/04/17 01:03:13;;;;;;;17.88;10.45;;;;;;;14.81;100.00;100580.59;2072249;28;20050;-75
2023/04/17 01:04:35;;;;;;;20.20;10.50;;;;;;;14.83;100.00;100581.50;2070527;28;20516;-75
2023/04/17 01:05:57;;;;;;;21.52;10.95;;;;;;;14.86;100.00;100576.16;2076047;28;20521;-75
2023/04/17 01:07:19;;;;;;;22.88;10.38;;;;;;;14.87;100.00;100572.59;2072961;28;20635;-74
2023/04/17 01:08:42;;;;;;;26.92;10.32;;;;;;;14.88;100.00;100577.03;2070669;28;20046;-75
2023/04/17 01:10:06;;;;;;;23.33;11.10;;;;;;;14.87;100.00;100577.91;2072281;28;20038;-75
2023/04/17 01:11:27;;;;;;;24.83;10.65;;;;;;;14.85;100.00;100578.81;2078593;28;20402;-74
2023/04/17 01:13:01;;;;;;;23.85;11.40;;;;;;;14.77;100.00;100570.00;2082612;28;20440;-75
2023/04/17 01:14:24;;;;;;;25.83;11.70;;;;;;;14.67;100.00;100569.16;2071878;28;20521;-75
2023/04/17 01:15:45;;;;;;;21.45;11.02;;;;;;;14.61;100.00;100574.50;2076035;28;20513;-75
2023/04/17 01:17:09;;;;;;;21.85;11.25;;;;;;;14.53;100.00;100574.53;2070307;28;20049;-75
2023/04/17 01:18:31;;;;;;;19.58;10.25;;;;;;;14.47;100.00;100568.34;2067266;28;20042;-74
2023/04/17 01:19:53;;;;;;;19.92;11.40;;;;;;;14.47;100.00;100569.22;2074224;28;20118;-75
2023/04/17 01:21:16;;;;;;;24.23;11.70;;;;;;;14.53;100.00;100571.88;2077107;28;20056;-75
2023/04/17 01:22:38;;;;;;;20.50;10.80;;;;;;;14.59;100.00;100574.50;2071709;28;20050;-75
2023/04/17 01:24:03;;;;;;;23.98;11.55;;;;;;;14.68;100.00;100569.16;2064620;28;20393;-76
2023/04/17 01:25:26;;;;;;;21.15;11.73;;;;;;;14.73;100.00;100571.78;2068567;28;20038;-75
2023/04/17 01:26:48;;;;;;;19.50;11.93;;;;;;;14.77;100.00;100572.66;2067335;28;20054;-74
2023/04/17 01:28:09;;;;;;;22.33;13.10;;;;;;;14.76;100.00;100571.78;2066649;28;20050;-75
2023/04/17 01:29:32;;;;;;;;;;;;;;;14.71;100.00;100568.25;2070193;28;20046;-75
2023/04/17 01:30:55;;;;;;;23.98;12.10;;;;;;;14.66;100.00;100562.97;2072506;28;20332;-76
2023/04/17 01:32:16;;;;;;;25.17;12.60;;;;;;;14.61;100.00;100566.53;2068715;28;20088;-75
2023/04/17 01:33:39;;;;;;;25.60;12.15;;;;;;;14.57;100.00;100564.78;2072572;28;20539;-75
2023/04/17 01:35:01;;;;;;;26.02;12.95;;;;;;;14.51;100.00;100562.13;2069018;28;20499;-76
2023/04/17 01:36:23;;;;;;;24.08;12.18;;;;;;;14.39;100.00;100554.19;2067701;28;20103;-76
2023/04/17 01:37:44;;;;;;;23.30;12.80;;;;;;;14.28;100.00;100555.09;2075901;28;20444;-76
2023/04/17 01:39:08;;;;;;;24.95;12.73;;;;;;;14.13;100.00;100559.56;2069891;28;20049;-76
2023/04/17 01:40:30;;;;;;;24.88;12.00;;;;;;;13.98;100.00;100561.34;2073589;28;20047;-75
2023/04/17 01:41:53;;;;;;;26.27;11.75;;;;;;;13.89;100.00;100552.53;2070475;28;20433;-75
2023/04/17 01:43:14;;;;;;;23.88;11.98;;;;;;;13.85;100.00;100554.28;2062133;28;20057;-76
2023/04/17 01:44:37;;;;;;;26.98;13.38;;;;;;;13.82;100.00;100561.38;2066650;28;20240;-76
2023/04/17 01:45:59;;;;;;;27.15;13.75;;;;;;;13.87;100.00;100559.59;2074152;28;20072;-76
2023/04/17 01:47:21;;;;;;;28.42;13.60;;;;;;;13.94;100.00;100566.66;2077073;28;20050;-75
2023/04/17 01:48:43;;;;;;;25.70;14.05;;;;;;;14.00;100.00;100566.66;2070219;28;20045;-76
2023/04/17 01:50:07;;;;;;;26.00;14.20;;;;;;;14.05;100.00;100564.88;2072977;28;20120;-76
2023/04/17 01:51:30;;;;;;;21.88;13.70;;;;;;;14.04;100.00;100562.25;2071454;28;20168;-79
2023/04/17 01:52:52;;;;;;;28.25;14.70;;;;;;;14.02;100.00;100570.19;2059981;28;20046;-76
2023/04/17 01:54:16;;;;;;;25.83;14.68;;;;;;;14.03;100.00;100563.13;2065318;28;20414;-76
2023/04/17 01:55:38;;;;;;;26.92;13.90;;;;;;;14.02;100.00;100561.34;2062044;28;20088;-76
2023/04/17 01:57:01;;;;;;;28.48;15.05;;;;;;;14.01;100.00;100567.53;2070130;28;20505;-76
2023/04/17 01:58:22;;;;;;;27.40;14.50;;;;;;;13.98;100.00;100566.66;2064376;28;20062;-76
2023/04/17 01:59:45;;;;;;;25.27;14.43;;;;;;;13.95;100.00;100563.13;2059018;28;20100;-75
2023/04/17 02:01:07;;;;;;;26.88;14.13;;;;;;;13.90;100.00;100562.25;2066851;28;20136;-75
2023/04/17 02:02:28;;;;;;;27.30;13.68;;;;;;;13.80;100.00;100557.84;2062094;28;20046;-76
2023/04/17 02:03:51;;;;;;;24.85;13.18;;;;;;;13.72;100.00;100562.28;2075725;28;20072;-76
2023/04/17 02:05:13;;;;;;;22.95;14.02;;;;;;;13.67;100.00;100562.25;2077574;28;20103;-76
2023/04/17 02:06:35;;;;;;;26.98;13.98;;;;;;;13.67;100.00;100561.38;2067917;28;20054;-75
2023/04/17 02:07:57;;;;;;;34.25;14.77;;;;;;;13.71;100.00;100564.06;2066528;28;20050;-76
2023/04/17 02:09:23;;;;;;;25.15;14.07;;;;;;;13.74;100.00;100564.03;2067531;28;20392;-75
2023/04/17 02:10:44;;;;;;;26.88;14.45;;;;;;;13.76;100.00;100564.03;2067523;28;20105;-75
2023/04/17 02:12:07;;;;;;;25.35;14.35;;;;;;;13.78;100.00;100555.19;2069223;28;20549;-75
2023/04/17 02:13:29;;;;;;;29.40;16.35;;;;;;;13.80;100.00;100557.84;2070022;28;20041;-76
2023/04/17 02:14:52;;;;;;;29.27;14.52;;;;;;;13.81;100.00;100549.00;2073426;28;20409;-75
2023/04/17 02:16:13;;;;;;;27.20;14.63;;;;;;;13.80;100.00;100552.53;2069473;28;20549;-76
2023/04/17 02:17:37;;;;;;;29.50;14.70;;;;;;;13.80;100.00;100545.44;2070247;28;20061;-75
2023/04/17 02:18:59;;;;;;;31.20;14.70;;;;;;;13.82;100.00;100551.66;2067020;28;20072;-76
2023/04/17 02:20:21;;;;;;;26.20;14.43;;;;;;;13.82;100.00;100546.34;2077171;28;20115;-74
2023/04/17 02:21:43;;;;;;;26.00;11.57;;;;;;;13.76;100.00;100549.00;2069483;28;20137;-74
2023/04/17 02:23:06;;;;;;;20.42;10.68;;;;;;;13.70;100.00;100546.38;2074599;28;20046;-75
2023/04/17 02:24:30;;;;;;;23.00;11.52;;;;;;;13.67;100.00;100553.41;2067700;28;20104;-74
2023/04/17 02:25:55;;;;;;;19.42;12.07;;;;;;;13.67;100.00;100556.06;2076503;28;20049;-74
2023/04/17 02:27:17;;;;;;;22.30;11.45;;;;;;;13.68;100.00;100550.78;2069685;28;20077;-75
2023/04/17 02:28:40;;;;;;;21.50;11.55;;;;;;;13.69;100.00;100557.84;2066667;28;20410;-75
2023/04/17 02:30:01;;;;;;;21.30;11.57;;;;;;;13.64;100.00;100551.66;2075150;28;20374;-75
2023/04/17 02:31:25;;;;;;;21.58;11.48;;;;;;;13.54;100.00;100550.78;2073095;28;20561;-75
2023/04/17 02:32:46;;;;;;;22.10;11.55;;;;;;;13.51;100.00;100549.91;2071054;28;20042;-75
2023/04/17 02:34:09;;;;;;;23.08;12.32;;;;;;;13.51;100.00;100544.59;2066831;28;20660;-75
2023/04/17 02:35:31;;;;;;;22.88;12.30;;;;;;;13.53;100.00;100541.03;2074030;28;20452;-75
2023/04/17 02:36:53;;;;;;;24.95;11.95;;;;;;;13.56;100.00;100545.47;2072076;28;20494;-75
2023/04/17 02:38:17;;;;;;;20.80;12.05;;;;;;;13.55;100.00;100547.25;2067704;28;20381;-76
2023/04/17 02:39:42;;;;;;;26.75;13.35;;;;;;;13.56;100.00;100542.81;2070051;28;20052;-75
2023/04/17 02:41:05;;;;;;;28.65;12.55;;;;;;;13.55;100.00;100544.59;2066484;28;20510;-75
2023/04/17 02:42:27;;;;;;;28.55;13.02;;;;;;;13.56;100.00;100542.81;2076872;28;20057;-75
2023/04/17 02:43:50;;;;;;;19.73;11.18;;;;;;;13.56;100.00;100545.47;2063927;28;20141;-75
2023/04/17 02:45:12;;;;;;;23.98;11.32;;;;;;;13.53;100.00;100542.81;2069787;28;20054;-75
2023/04/17 02:46:35;;;;;;;19.77;10.52;;;;;;;13.47;100.00;100546.34;2072250;28;20093;-75
2023/04/17 02:47:57;;;;;;;20.45;11.10;;;;;;;13.41;100.00;100541.03;2068621;28;20132;-74
2023/04/17 02:49:20;;;;;;;22.42;10.63;;;;;;;13.39;100.00;100545.47;2066857;28;20458;-74
2023/04/17 02:50:41;;;;;;;18.80;9.57;;;;;;;13.27;100.00;100542.81;2066632;28;20053;-75
2023/04/17 02:52:09;;;;;;;21.17;8.80;;;;;;;13.12;100.00;100554.28;2067849;28;20046;-75
2023/04/17 02:53:30;;;;;;;20.08;9.23;;;;;;;13.05;100.00;100541.88;2070102;28;20202;-75
2023/04/17 02:54:55;;;;;;;20.38;8.77;;;;;;;13.02;100.00;100557.75;2068464;28;20615;-76
2023/04/17 02:56:18;;;;;;;23.55;9.70;;;;;;;13.02;100.00;100554.22;2070587;28;20046;-75
2023/04/17 02:57:39;;;;;;;17.73;10.60;;;;;;;13.06;100.00;100556.88;2072222;28;20526;-76
2023/04/17 02:59:01;;;;;;;22.65;10.88;;;;;;;13.14;100.00;100554.28;2065636;28;20041;-76
2023/04/17 03:00:23;;;;;;;19.58;10.30;;;;;;;13.20;100.00;100553.38;2066183;28;20418;-75
2023/04/17 03:01:45;;;;;;;20.13;10.45;;;;;;;13.24;100.00;100549.88;2069297;28;20073;-75
2023/04/17 03:03:09;;;;;;;19.50;9.90;;;;;;;13.26;100.00;100551.63;2061504;28;20034;-75
2023/04/17 03:04:33;;;;;;;21.52;10.80;;;;;;;13.26;100.00;100556.06;2068103;28;20053;-77
2023/04/17 03:05:55;;;;;;;20.08;10.70;;;;;;;13.26;100.00;100556.06;2061823;28;20089;-77
2023/04/17 03:07:18;;;;;;;20.52;10.85;;;;;;;13.24;100.00;100549.88;2067168;28;20042;-78
2023/04/17 03:08:41;;;;;;;17.50;11.02;;;;;;;13.22;100.00;100557.81;2061141;28;20538;-77
2023/04/17 03:10:05;;;;;;;21.88;11.32;;;;;;;13.19;100.00;100555.19;2064810;28;20192;-77
2023/04/17 03:11:28;;;;;;;19.23;11.10;;;;;;;13.16;100.00;100556.06;2067104;28;20045;-76
2023/04/17 03:12:50;;;;;;;19.90;10.30;;;;;;;13.16;100.00;100560.47;2073788;28;20895;-76
2023/04/17 03:14:12;;;;;;;19.38;10.48;;;;;;;13.13;100.00;100563.97;2061416;28;20081;-76
2023/04/17 03:15:35;;;;;;;20.58;11.35;;;;;;;13.13;100.00;100568.41;2073856;28;20123;-77
2023/04/17 03:16:57;;;;;;;18.45;10.75;;;;;;;13.12;100.00;100575.50;2063780;28;20050;-77
2023/04/17 03:18:20;;;;;;;21.50;11.80;;;;;;;13.13;100.00;100565.75;2061575;28;20053;-76
2023/04/17 03:19:42;;;;;;;22.15;11.88;;;;;;;13.11;100.00;100573.69;2074225;28;20034;-77
2023/04/17 03:21:05;;;;;;;21.15;11.20;;;;;;;13.06;100.00;100570.13;2075525;28;20152;-77
2023/04/17 03:22:26;;;;;;;24.17;11.48;;;;;;;13.02;100.00;100572.75;2071960;28;20071;-77
2023/04/17 03:23:49;;;;;;;21.35;11.00;;;;;;;12.99;100.00;100578.06;2065977;28;20048;-77
2023/04/17 03:25:13;;;;;;;23.23;10.65;;;;;;;12.95;100.00;100576.28;2065201;28;20104;-78
2023/04/17 03:26:48;;;;;;;18.38;11.05;;;;;;;12.91;100.00;100577.16;2070979;28;20573;-76
2023/04/17 03:28:12;;;;;;;20.92;10.32;;;;;;;12.88;100.00;100577.13;2069122;28;20080;-77
2023/04/17 03:29:35;;;;;;;18.30;9.43;;;;;;;12.85;100.00;100583.31;2068721;28;20465;-76
2023/04/17 03:30:58;;;;;;;19.02;10.15;;;;;;;12.80;100.00;100582.41;2075345;28;20087;-76
2023/04/17 03:32:21;;;;;;;15.90;9.52;;;;;;;12.74;100.00;100582.38;2076297;28;20046;-77
2023/04/17 03:33:44;;;;;;;13.48;7.32;;;;;;;12.61;100.00;100578.81;2068218;28;20421;-77
2023/04/17 03:35:07;;;;;;;16.80;7.82;;;;;;;12.51;100.00;100582.31;2068770;28;20073;-77
2023/04/17 03:36:30;;;;;;;17.38;8.98;;;;;;;12.51;100.00;100590.25;2067190;28;20113;-77
2023/04/17 03:37:53;;;;;;;17.67;9.02;;;;;;;12.54;100.00;100582.28;2066130;28;20054;-76
2023/04/17 03:39:15;;;;;;;17.25;9.38;;;;;;;12.59;100.00;100582.34;2067212;28;20041;-77
2023/04/17 03:40:39;;;;;;;23.52;10.48;;;;;;;12.63;100.00;100582.34;2066230;28;20112;-76
2023/04/17 03:42:00;;;;;;;16.92;9.27;;;;;;;12.67;100.00;100575.28;2066936;28;20052;-77
2023/04/17 03:43:23;;;;;;;19.50;9.82;;;;;;;12.71;100.00;100585.03;2067222;28;20104;-76
2023/04/17 03:44:45;;;;;;;17.73;9.63;;;;;;;12.74;100.00;100587.69;2061048;28;20073;-76
2023/04/17 03:46:08;;;;;;;16.10;8.95;;;;;;;12.73;100.00;100581.50;2074044;28;20052;-76
2023/04/17 03:47:32;;;;;;;17.98;8.60;;;;;;;12.74;100.00;100585.03;2071645;28;20048;-77
2023/04/17 03:48:54;;;;;;;15.88;7.13;;;;;;;12.72;100.00;100584.16;2066467;28;20046;-77
2023/04/17 03:50:15;;;;;;;14.63;5.80;;;;;;;12.59;100.00;100575.28;2061906;28;20513;-76
2023/04/17 03:51:44;;;;;;;14.38;6.18;;;;;;;12.50;100.00;100569.03;2069542;28;20050;-77
2023/04/17 03:53:11;;;;;;;17.70;6.97;;;;;;;12.46;100.00;100560.22;2067132;28;20064;-77
2023/04/17 03:54:35;;;;;;;;;;;;;;;12.50;100.00;100559.34;2071891;28;20052;-77
2023/04/17 03:56:02;;;;;;;13.80;8.07;;;;;;;12.62;100.00;100554.09;2061638;28;20016;-77
2023/04/17 03:57:27;;;;;;;19.50;8.57;;;;;;;12.73;100.00;100552.34;2067890;28;20037;-76
2023/04/17 03:58:50;;;;;;;21.00;7.95;;;;;;;12.85;100.00;100550.66;2066499;28;20054;-76
2023/04/17 04:00:15;;;;;;;15.73;8.20;;;;;;;12.93;100.00;100544.47;2067108;28;20045;-76
2023/04/17 04:01:52;;;;;;;16.13;8.15;;;;;;;12.98;100.00;100545.38;2062960;28;20558;-76
2023/04/17 04:03:18;;;;;;;15.80;7.82;;;;;;;13.04;100.00;100553.34;2077677;28;20053;-76
2023/04/17 04:04:40;;;;;;;17.60;7.07;;;;;;;13.06;100.00;100548.06;2074437;28;20595;-77
2023/04/17 04:06:06;;;;;;;13.82;5.10;;;;;;;12.96;100.00;100554.19;2086363;28;20102;-77
2023/04/17 04:07:29;;;;;;;8.82;4.53;;;;;;;12.76;100.00;100555.03;2077364;28;20069;-77
2023/04/17 04:08:52;;;;;;;10.98;4.25;;;;;;;12.59;100.00;100558.50;2074297;28;20046;-76
2023/04/17 04:10:13;;;;;;;9.73;3.47;;;;;;;12.43;100.00;100554.00;2077119;28;20046;-76
2023/04/17 04:11:37;;;;;;;9.30;3.40;;;;;;;12.29;100.00;100554.81;2071649;28;20050;-77
2023/04/17 04:13:00;;;;;;;10.82;4.18;;;;;;;12.31;100.00;100555.72;2073743;28;20073;-75
2023/04/17 04:14:22;;;;;;;9.50;3.60;;;;;;;12.43;100.00;100560.19;2069360;28;20049;-75
2023/04/17 04:15:45;;;;;;;10.82;4.32;;;;;;;12.56;100.00;100563.78;2060693;28;20042;-75
2023/04/17 04:17:09;;;;;;;11.07;4.03;;;;;;;12.65;100.00;100564.72;2066951;28;20046;-76
2023/04/17 04:18:31;;;;;;;11.43;4.70;;;;;;;12.81;100.00;100570.94;2077194;28;20037;-75
2023/04/17 04:19:54;;;;;;;12.25;4.53;;;;;;;13.05;100.00;100571.03;2069407;28;20721;-75
2023/04/17 04:21:16;;;;;;;10.57;4.13;;;;;;;13.30;100.00;100571.09;2073311;28;20038;-75
2023/04/17 04:22:37;;;;;;;10.63;3.85;;;;;;;13.48;100.00;100566.69;2083303;28;20082;-75
2023/04/17 04:24:01;;;;;;;10.15;4.05;;;;;;;13.69;100.00;100564.91;2068578;28;20116;-75
2023/04/17 04:25:24;;;;;;;10.93;4.63;;;;;;;13.84;100.00;100560.50;2066559;28;20087;-75
2023/04/17 04:27:04;;;;;;;11.77;4.13;;;;;;;13.98;100.00;100561.34;2076319;28;20476;-75
2023/04/17 04:28:29;;;;;;;10.75;5.28;;;;;;;14.10;100.00;100564.88;2063594;28;20059;-75
2023/04/17 04:29:52;;;;;;;13.57;5.53;;;;;;;14.23;100.00;100558.66;2060928;28;20057;-75
2023/04/17 04:31:17;;;;;;;13.65;6.45;;;;;;;14.40;100.00;100553.31;2063471;28;20041;-75
2023/04/17 04:32:40;;;;;;;11.30;4.40;;;;;;;14.59;100.00;100565.63;2065154;28;20073;-75
2023/04/17 04:34:02;;;;;;;12.95;4.55;;;;;;;14.72;100.00;100568.25;2068951;28;20081;-75
2023/04/17 04:35:24;;;;;;;7.70;3.60;;;;;;;14.83;100.00;100569.97;2071741;28;20489;-75
2023/04/17 04:36:49;;;;;;;13.20;5.10;;;;;;;14.89;100.00;100568.19;2065394;28;20643;-75
2023/04/17 04:38:31;;;;;;;14.27;6.20;;;;;;;14.97;100.00;100561.00;2078950;28;20057;-76
2023/04/17 04:40:09;;;;;;;12.70;5.95;;;;;;;15.06;100.00;100560.97;2072767;28;20494;-75
2023/04/17 04:41:35;;;;;;;15.82;5.88;;;;;;;15.11;100.00;100564.47;2067792;28;20655;-75
2023/04/17 04:43:01;;;;;;;17.55;6.65;;;;;;;15.16;100.00;100568.00;2066490;28;20490;-76
2023/04/17 04:44:31;;;;;;;11.70;5.60;;;;;;;15.23;100.00;100565.31;2067656;28;20046;-76
2023/04/17 04:45:53;;;;;;;13.60;5.97;;;;;;;15.31;100.00;100561.69;2073871;28;20092;-75
2023/04/17 04:47:16;;;;;;;17.00;6.35;;;;;;;15.43;100.00;100561.59;2071676;28;20394;-75
2023/04/17 04:48:38;;;;;;;17.60;6.03;;;;;;;15.54;100.00;100559.81;2068440;28;20046;-75
2023/04/17 04:50:00;;;;;;;13.38;5.43;;;;;;;15.67;100.00;100562.34;2064966;28;20104;-76
2023/04/17 04:51:22;;;;;;;10.15;5.47;;;;;;;15.80;100.00;100556.91;2065427;28;20724;-76
2023/04/17 04:52:46;;;;;;;15.40;6.18;;;;;;;15.93;100.00;100552.34;2061114;28;20054;-75
2023/04/17 04:54:20;;;;;;;13.77;5.78;;;;;;;16.05;100.00;100549.56;2069835;28;20053;-75
2023/04/17 04:55:46;;;;;;;17.42;6.32;;;;;;;16.18;100.00;100550.31;2068532;28;20080;-75
2023/04/17 04:57:09;;;;;;;14.93;5.97;;;;;;;16.30;100.00;100552.84;2063931;28;20120;-75
2023/04/17 04:58:34;;;;;;;14.68;6.20;;;;;;;16.41;100.00;100550.94;2066872;28;20046;-75
2023/04/17 04:59:56;;;;;;;15.85;5.63;;;;;;;16.51;100.00;100544.59;2066613;28;20046;-75
2023/04/17 05:01:30;;;;;;;11.20;4.63;;;;;;;16.61;100.00;100548.94;2075089;28;20497;-76
2023/04/17 05:02:51;;;;;;;17.13;5.75;;;;;;;16.72;100.00;100546.16;2068890;28;20791;-75
2023/04/17 05:04:16;;;;;;;12.25;5.82;;;;;;;16.84;100.00;100550.44;2066684;28;20054;-75
2023/04/17 05:05:39;;;;;;;14.00;5.10;;;;;;;16.93;100.00;100545.00;2067761;28;20398;-75
2023/04/17 05:07:04;;;;;;;15.93;6.03;;;;;;;17.01;100.00;100549.28;2067498;28;20705;-75
2023/04/17 05:08:26;;;;;;;16.15;5.18;;;;;;;17.08;100.00;100555.41;2067694;28;20072;-75
2023/04/17 05:09:59;;;;;;;;;;;;;;;17.09;100.00;100550.06;2076167;28;20183;-74
2023/04/17 05:11:24;;;;;;;16.25;5.43;;;;;;;17.17;100.00;100543.75;2069920;28;19936;-74
2023/04/17 05:12:45;;;;;;;12.48;5.57;;;;;;;17.29;100.00;100546.22;2069979;28;20502;-74
2023/04/17 05:14:10;;;;;;;13.50;4.88;;;;;;;17.43;100.00;100553.13;2076035;28;20045;-75
2023/04/17 05:15:34;;;;;;;12.95;5.10;;;;;;;17.63;100.00;100559.97;2068557;28;20070;-75
2023/04/17 05:16:56;;;;;;;16.27;6.10;;;;;;;17.83;100.00;100553.38;2069087;28;20103;-76
2023/04/17 05:18:19;;;;;;;18.30;6.65;;;;;;;18.02;100.00;100548.59;2064394;28;20029;-75
2023/04/17 05:19:40;;;;;;;15.50;6.13;;;;;;;18.22;100.00;100550.88;2065611;28;20499;-75
2023/04/17 05:21:05;;;;;;;14.90;5.40;;;;;;;18.41;100.00;100556.75;2066051;28;20065;-75
2023/04/17 05:22:26;;;;;;;13.25;4.82;;;;;;;18.59;100.00;100562.63;2067830;28;20045;-75
2023/04/17 05:23:58;;;;;;;12.50;5.00;;;;;;;18.78;100.00;100564.91;2071532;28;20041;-75
2023/04/17 05:25:21;;;;;;;15.23;5.30;;;;;;;18.95;100.00;100566.34;2072338;28;20410;-75
2023/04/17 05:26:44;;;;;;;19.10;10.82;;;;;;;19.10;100.00;100581.16;2078380;28;20064;-76
2023/04/17 05:28:06;;;;;;;27.70;15.48;;;;;;;19.20;100.00;100577.38;2072923;28;20081;-76
2023/04/17 05:29:31;;;;;;;52.55;34.80;;;;;;;19.30;100.00;100575.34;2068619;28;20096;-76
2023/04/17 05:30:54;;;;;;;92.50;60.00;;;;;;;19.38;100.00;100579.63;2069930;28;20395;-76
2023/04/17 05:32:24;;;;;;;51.15;31.58;;;;;;;19.45;100.00;100572.31;2076534;28;20095;-75
2023/04/17 05:33:51;;;;;;;23.85;15.25;;;;;;;19.54;100.00;100574.81;2070808;28;20660;-75
2023/04/17 05:35:12;;;;;;;18.13;8.70;;;;;;;19.63;100.00;100569.22;2066743;28;20049;-75
2023/04/17 05:36:36;;;;;;;18.20;8.25;;;;;;;19.74;100.00;100579.69;2066523;28;20137;-75
2023/04/17 05:37:59;;;;;;;20.27;8.50;;;;;;;19.85;100.00;100578.50;2068441;28;20084;-76
2023/04/17 05:39:21;;;;;;;23.45;10.70;;;;;;;20.01;100.00;100576.31;2066079;28;20045;-75
2023/04/17 05:40:44;;;;;;;20.35;10.68;;;;;;;20.18;100.00;100578.53;2066382;28;20054;-75
2023/04/17 05:42:06;;;;;;;18.42;9.43;;;;;;;20.30;100.00;100573.72;2067897;28;20057;-76
2023/04/17 05:43:29;;;;;;;16.20;8.05;;;;;;;20.40;100.00;100571.72;2071777;28;20068;-76
2023/04/17 05:44:51;;;;;;;13.38;6.70;;;;;;;20.40;100.00;100576.19;2069634;28;20046;-76
2023/04/17 05:46:14;;;;;;;15.45;6.78;;;;;;;20.39;100.00;100575.31;2073167;28;20053;-75
2023/04/17 05:47:38;;;;;;;16.85;8.20;;;;;;;20.44;100.00;100573.38;2074165;28;20068;-76
2023/04/17 05:49:00;;;;;;;14.82;6.90;;;;;;;20.49;100.00;100573.25;2072558;28;20052;-75
2023/04/17 05:50:24;;;;;;;11.88;6.75;;;;;;;20.54;100.00;100574.00;2062612;28;20477;-75
2023/04/17 05:51:46;;;;;;;15.68;6.22;;;;;;;20.64;100.00;100568.34;2069950;28;20141;-76
2023/04/17 05:53:09;;;;;;;15.60;7.60;;;;;;;20.68;100.00;100575.34;2072766;28;20148;-76
2023/04/17 05:54:39;;;;;;;13.82;5.97;;;;;;;20.75;100.00;100570.69;2068975;28;20109;-76
2023/04/17 05:56:03;;;;;;;13.65;6.22;;;;;;;20.82;100.00;100568.72;2069273;28;20042;-76
2023/04/17 05:57:27;;;;;;;12.35;5.30;;;;;;;20.85;100.00;100568.63;2069911;28;20113;-76
2023/04/17 05:58:50;;;;;;;10.80;4.38;;;;;;;20.85;100.00;100568.63;2070279;28;20639;-76
2023/04/17 06:00:15;;;;;;;12.30;4.43;;;;;;;20.93;100.00;100569.28;2073799;28;20060;-75
2023/04/17 06:01:36;;;;;;;12.15;5.03;;;;;;;21.03;100.00;100568.06;2086653;28;20048;-76
2023/04/17 06:03:00;;;;;;;19.33;7.22;;;;;;;21.13;100.00;100561.50;2071648;28;20037;-76
2023/04/17 06:04:34;;;;;;;19.25;9.52;;;;;;;21.21;100.00;100556.78;2070232;28;20581;-76
2023/04/17 06:05:57;;;;;;;20.67;9.88;;;;;;;21.34;100.00;100562.66;2067653;28;20045;-76
2023/04/17 06:07:20;;;;;;;19.52;9.35;;;;;;;21.42;100.00;100561.50;2076119;28;20037;-76
2023/04/17 06:08:43;;;;;;;14.02;5.97;;;;;;;21.51;100.00;100562.13;2068698;28;20045;-75
2023/04/17 06:10:07;;;;;;;13.80;6.03;;;;;;;21.62;100.00;100571.59;2078053;28;20045;-76
2023/04/17 06:11:29;;;;;;;15.32;6.75;;;;;;;21.72;100.00;100565.00;2070037;28;20064;-75
2023/04/17 06:12:54;;;;;;;36.72;3.58;;;;;;;21.80;100.00;100579.03;2058601;28;20055;-74
2023/04/17 06:14:17;;;;;;;12.88;4.15;;;;;;;21.88;100.00;100578.78;2073447;28;20037;-75
2023/04/17 06:15:41;;;;;;;15.40;5.70;;;;;;;21.90;100.00;100573.38;2072528;28;20141;-75
2023/04/17 06:17:05;;;;;;;24.42;5.95;;;;;;;21.94;100.00;100583.94;2074626;28;20045;-76